createdAt,value
2023-03-30T00:01:00.562Z,9.08
2023-03-30T00:03:28.489Z,8.99
2023-03-30T00:05:56.963Z,8.97
2023-03-30T00:08:28.765Z,8.95
2023-03-30T00:11:10.031Z,8.96
2023-03-30T00:13:38.440Z,9.01
2023-03-30T00:16:08.483Z,9.07
2023-03-30T00:18:36.656Z,9.14
2023-03-30T00:21:05.217Z,8.93
2023-03-30T00:23:32.968Z,8.86
2023-03-30T00:26:00.584Z,8.85
2023-03-30T00:28:30.537Z,8.84
2023-03-30T00:30:57.938Z,8.85
2023-03-30T00:33:37.195Z,8.89
2023-03-30T00:36:09.069Z,8.94
2023-03-30T00:38:35.698Z,8.92
2023-03-30T00:41:02.572Z,8.95
2023-03-30T00:43:29.816Z,8.87
2023-03-30T00:45:57.750Z,8.91
2023-03-30T00:48:30.029Z,8.86
2023-03-30T00:51:01.590Z,8.81
2023-03-30T00:53:35.466Z,8.78
2023-03-30T00:56:07.540Z,8.82
2023-03-30T00:58:37.249Z,8.77
2023-03-30T01:01:10.265Z,8.74
2023-03-30T01:03:45.752Z,8.76
2023-03-30T01:06:17.778Z,8.71
2023-03-30T01:08:45.284Z,8.65
2023-03-30T01:11:11.893Z,8.55
2023-03-30T01:13:52.953Z,8.54
2023-03-30T01:16:56.728Z,8.59
2023-03-30T01:20:23.557Z,8.40
2023-03-30T01:23:08.608Z,8.43
2023-03-30T01:26:03.224Z,8.50
2023-03-30T01:28:52.391Z,8.51
2023-03-30T01:32:01.981Z,8.47
2023-03-30T01:35:06.327Z,8.41
2023-03-30T01:38:02.094Z,8.49
2023-03-30T01:40:42.997Z,8.57
2023-03-30T01:43:25.926Z,8.67
2023-03-30T01:46:07.565Z,8.74
2023-03-30T01:48:55.959Z,8.76
2023-03-30T01:51:35.704Z,8.64
2023-03-30T01:54:12.740Z,8.54
2023-03-30T01:56:46.271Z,8.50
2023-03-30T01:59:24.188Z,8.40
2023-03-30T02:02:00.559Z,8.43
2023-03-30T02:04:33.616Z,8.40
2023-03-30T02:07:06.701Z,8.46
2023-03-30T02:09:38.005Z,8.60
2023-03-30T02:12:07.125Z,8.72
2023-03-30T02:14:37.570Z,8.80
2023-03-30T02:17:15.025Z,8.88
2023-03-30T02:19:42.104Z,8.94
2023-03-30T02:22:08.794Z,8.92
2023-03-30T02:24:36.515Z,8.93
2023-03-30T02:27:04.155Z,8.98
2023-03-30T02:29:34.914Z,8.99
2023-03-30T02:32:01.727Z,9.16
2023-03-30T02:35:03.802Z,9.15
2023-03-30T02:38:00.545Z,9.22
2023-03-30T02:40:42.260Z,9.36
2023-03-30T02:43:57.736Z,9.48
2023-03-30T02:47:00.956Z,9.66
2023-03-30T02:49:51.862Z,9.74
2023-03-30T02:52:36.861Z,9.83
2023-03-30T02:55:16.095Z,9.98
2023-03-30T02:58:03.120Z,9.98
2023-03-30T03:00:59.569Z,9.96
2023-03-30T03:03:58.097Z,10.05
2023-03-30T03:06:26.369Z,10.19
2023-03-30T03:08:55.605Z,10.27
2023-03-30T03:11:22.943Z,10.35
2023-03-30T03:13:50.437Z,10.40
2023-03-30T03:16:17.553Z,10.45
2023-03-30T03:18:44.533Z,10.49
2023-03-30T03:21:13.776Z,10.53
2023-03-30T03:23:40.821Z,10.54
2023-03-30T03:26:08.005Z,10.67
2023-03-30T03:28:34.911Z,10.69
2023-03-30T03:31:02.563Z,10.69
2023-03-30T03:33:31.856Z,10.68
2023-03-30T03:36:00.254Z,10.72
2023-03-30T03:38:28.759Z,10.73
2023-03-30T03:40:58.699Z,10.77
2023-03-30T03:43:25.963Z,10.76
2023-03-30T03:45:53.534Z,10.81
2023-03-30T03:48:24.394Z,10.79
2023-03-30T03:50:57.681Z,10.70
2023-03-30T03:53:27.626Z,10.63
2023-03-30T03:55:54.937Z,10.64
2023-03-30T03:58:22.266Z,10.66
2023-03-30T04:00:49.702Z,10.65
2023-03-30T04:03:16.325Z,10.67
2023-03-30T04:05:42.907Z,10.68
2023-03-30T04:08:10.800Z,10.71
2023-03-30T04:10:39.571Z,10.69
2023-03-30T04:13:06.715Z,10.69
2023-03-30T04:15:33.906Z,10.77
2023-03-30T04:20:30.628Z,10.79
2023-03-30T04:22:57.254Z,10.88
2023-03-30T04:25:25.784Z,10.96
2023-03-30T04:27:53.425Z,11.01
2023-03-30T04:30:22.391Z,11.02
2023-03-30T04:33:03.042Z,11.01
2023-03-30T04:35:34.432Z,10.98
2023-03-30T04:38:02.288Z,11.11
2023-03-30T04:40:29.688Z,11.20
2023-03-30T04:43:02.065Z,11.26
2023-03-30T04:45:31.989Z,11.34
2023-03-30T04:47:58.626Z,11.37
2023-03-30T04:50:25.422Z,11.44
2023-03-30T04:52:51.937Z,11.48
2023-03-30T04:55:18.567Z,11.52
2023-03-30T04:57:45.235Z,11.54
2023-03-30T05:00:13.626Z,11.51
2023-03-30T05:02:40.344Z,11.49
2023-03-30T05:05:07.399Z,11.51
2023-03-30T05:07:33.934Z,11.51
2023-03-30T05:10:00.402Z,11.58
2023-03-30T05:12:26.938Z,11.63
2023-03-30T05:14:53.400Z,11.62
2023-03-30T05:17:19.943Z,11.65
2023-03-30T05:19:46.643Z,11.67
2023-03-30T05:22:13.283Z,11.69
2023-03-30T05:24:39.850Z,11.66
2023-03-30T05:27:06.770Z,11.65
2023-03-30T05:29:33.266Z,11.63
2023-03-30T05:31:59.749Z,11.74
2023-03-30T05:34:26.993Z,11.82
2023-03-30T05:36:54.051Z,11.85
2023-03-30T05:39:20.536Z,11.86
2023-03-30T05:41:47.020Z,11.85
2023-03-30T05:44:13.750Z,11.90
2023-03-30T05:46:40.382Z,11.92
2023-03-30T05:49:07.209Z,11.98
2023-03-30T05:51:33.719Z,11.94
2023-03-30T05:54:00.430Z,12.00
2023-03-30T05:56:27.243Z,12.05
2023-03-30T05:58:53.731Z,12.06
2023-03-30T06:01:21.305Z,12.10
2023-03-30T06:03:48.576Z,12.14
2023-03-30T06:06:15.495Z,12.16
2023-03-30T06:08:42.053Z,12.16
2023-03-30T06:11:08.829Z,12.16
2023-03-30T06:13:35.307Z,12.22
2023-03-30T06:16:03.332Z,12.27
2023-03-30T06:18:30.700Z,12.31
2023-03-30T06:20:57.745Z,12.26
2023-03-30T06:23:24.586Z,12.29
2023-03-30T06:25:54.530Z,12.28
2023-03-30T06:28:22.431Z,12.18
2023-03-30T06:30:49.440Z,12.25
2023-03-30T06:33:17.557Z,12.31
2023-03-30T06:35:52.525Z,12.27
2023-03-30T06:38:22.575Z,12.38
2023-03-30T06:40:49.518Z,12.40
2023-03-30T06:43:22.378Z,12.33
2023-03-30T06:45:56.976Z,12.31
2023-03-30T06:48:24.367Z,12.41
2023-03-30T06:50:52.744Z,12.45
2023-03-30T06:53:20.822Z,12.50
2023-03-30T06:55:57.022Z,12.46
2023-03-30T06:58:27.215Z,12.50
2023-03-30T07:00:54.865Z,12.55
2023-03-30T07:03:22.504Z,12.55
2023-03-30T07:05:52.199Z,12.62
2023-03-30T07:08:20.341Z,12.65
2023-03-30T07:10:48.712Z,12.65
2023-03-30T07:13:17.482Z,12.70
2023-03-30T07:15:45.614Z,12.72
2023-03-30T07:18:13.229Z,12.80
2023-03-30T07:20:39.721Z,12.99
2023-03-30T07:23:07.210Z,13.10
2023-03-30T07:25:34.023Z,13.16
2023-03-30T07:28:02.096Z,13.30
2023-03-30T07:30:28.694Z,13.33
2023-03-30T07:32:57.745Z,13.33
2023-03-30T07:35:25.139Z,13.35
2023-03-30T07:37:51.747Z,13.36
2023-03-30T07:40:19.689Z,13.34
2023-03-30T07:42:47.365Z,13.37
2023-03-30T07:45:16.470Z,13.45
2023-03-30T07:47:43.307Z,13.57
2023-03-30T07:50:10.176Z,13.66
2023-03-30T07:52:36.931Z,13.74
2023-03-30T07:55:04.145Z,13.81
2023-03-30T07:57:30.758Z,13.82
2023-03-30T07:59:57.277Z,13.89
2023-03-30T08:02:23.755Z,14.03
2023-03-30T08:04:50.514Z,14.15
2023-03-30T08:07:17.752Z,14.27
2023-03-30T08:09:45.823Z,14.27
2023-03-30T08:12:12.434Z,14.28
2023-03-30T08:14:38.904Z,14.27
2023-03-30T08:17:05.431Z,14.39
2023-03-30T08:19:32.006Z,14.49
2023-03-30T08:22:01.621Z,14.51
2023-03-30T08:24:28.212Z,14.38
2023-03-30T08:26:54.859Z,14.24
2023-03-30T08:29:21.640Z,14.33
2023-03-30T08:31:48.392Z,14.42
2023-03-30T08:34:15.278Z,14.36
2023-03-30T08:36:41.832Z,14.48
2023-03-30T08:39:08.814Z,14.48
2023-03-30T08:42:11.672Z,14.46
2023-03-30T08:44:46.663Z,14.55
2023-03-30T08:47:36.672Z,14.52
2023-03-30T08:50:13.529Z,14.49
2023-03-30T08:52:42.016Z,14.49
2023-03-30T08:55:24.237Z,14.42
2023-03-30T08:58:05.435Z,14.61
2023-03-30T09:00:44.895Z,14.79
2023-03-30T09:03:29.876Z,14.86
2023-03-30T09:06:19.344Z,14.83
2023-03-30T09:08:47.430Z,14.70
2023-03-30T09:11:29.781Z,14.82
2023-03-30T09:14:01.558Z,14.84
2023-03-30T09:16:42.059Z,14.92
2023-03-30T09:19:24.518Z,14.99
2023-03-30T09:21:53.855Z,15.09
2023-03-30T09:24:26.511Z,14.93
2023-03-30T09:27:36.972Z,14.98
2023-03-30T09:30:18.239Z,15.03
2023-03-30T09:32:59.246Z,14.92
2023-03-30T09:35:41.556Z,15.26
2023-03-30T09:38:13.669Z,15.36
2023-03-30T09:41:07.102Z,15.40
2023-03-30T09:43:44.314Z,15.29
2023-03-30T09:46:11.217Z,15.01
2023-03-30T09:48:49.407Z,15.13
2023-03-30T09:51:27.937Z,15.10
2023-03-30T09:54:03.883Z,15.00
2023-03-30T09:56:47.542Z,14.98
2023-03-30T09:59:36.132Z,14.88
2023-03-30T10:02:12.632Z,14.79
2023-03-30T10:04:56.702Z,14.33
2023-03-30T10:07:29.293Z,14.54
2023-03-30T10:09:59.676Z,14.57
2023-03-30T10:12:28.338Z,14.77
2023-03-30T10:15:04.066Z,14.73
2023-03-30T10:17:31.456Z,14.90
2023-03-30T10:20:29.832Z,15.09
2023-03-30T10:23:04.076Z,15.36
2023-03-30T10:25:33.564Z,15.47
2023-03-30T10:28:04.652Z,15.57
2023-03-30T10:30:33.424Z,15.57
2023-03-30T10:33:02.799Z,15.52
2023-03-30T10:35:37.642Z,15.30
2023-03-30T10:38:07.782Z,14.84
2023-03-30T10:40:39.303Z,14.28
2023-03-30T10:43:14.494Z,13.78
2023-03-30T10:45:48.695Z,12.01
2023-03-30T10:48:26.850Z,11.02
2023-03-30T10:50:53.231Z,10.51
2023-03-30T10:53:44.384Z,10.18
2023-03-30T10:56:34.406Z,10.12
2023-03-30T10:59:06.744Z,10.34
2023-03-30T11:01:51.464Z,10.48
2023-03-30T11:04:58.444Z,10.50
2023-03-30T11:07:56.012Z,10.76
2023-03-30T11:10:29.462Z,10.63
2023-03-30T11:13:03.102Z,10.96
2023-03-30T11:15:53.204Z,11.21
2023-03-30T11:18:32.623Z,11.12
2023-03-30T11:21:04.399Z,11.13
2023-03-30T11:23:39.806Z,11.33
2023-03-30T11:26:11.591Z,11.48
2023-03-30T11:29:18.712Z,11.51
2023-03-30T11:32:03.046Z,11.55
2023-03-30T11:34:44.292Z,11.62
2023-03-30T11:37:35.455Z,11.66
2023-03-30T11:40:24.802Z,11.79
2023-03-30T11:42:53.789Z,11.78
2023-03-30T11:45:39.132Z,11.64
2023-03-30T11:48:45.553Z,11.39
2023-03-30T11:51:49.819Z,11.69
2023-03-30T11:54:34.141Z,12.05
2023-03-30T11:57:28.510Z,12.20
2023-03-30T12:00:23.269Z,12.20
2023-03-30T12:03:33.155Z,12.30
2023-03-30T12:06:32.115Z,12.48
2023-03-30T12:09:38.528Z,12.42
2023-03-30T12:12:19.596Z,12.35
2023-03-30T12:15:23.433Z,12.43
2023-03-30T12:18:12.062Z,12.52
2023-03-30T12:20:57.173Z,12.74
2023-03-30T12:24:08.078Z,12.68
2023-03-30T12:26:37.788Z,12.78
2023-03-30T12:29:48.140Z,12.86
2023-03-30T12:31:55.688Z,13.02
2023-03-30T12:34:25.935Z,12.81
2023-03-30T12:37:22.246Z,12.90
2023-03-30T12:40:18.006Z,12.95
2023-03-30T12:43:10.823Z,12.85
2023-03-30T12:46:20.146Z,12.80
2023-03-30T12:49:05.857Z,13.01
2023-03-30T12:51:56.931Z,13.10
2023-03-30T12:54:49.159Z,13.08
2023-03-30T12:57:41.550Z,13.22
2023-03-30T13:00:26.110Z,13.52
2023-03-30T13:03:42.196Z,13.13
2023-03-30T13:06:25.709Z,13.06
2023-03-30T13:09:23.728Z,13.38
2023-03-30T13:11:53.267Z,13.23
2023-03-30T13:14:39.326Z,13.35
2023-03-30T13:17:14.230Z,13.50
2023-03-30T13:20:07.142Z,13.87
2023-03-30T13:22:39.313Z,13.95
2023-03-30T13:25:18.104Z,13.85
2023-03-30T13:27:44.618Z,14.15
2023-03-30T13:30:14.758Z,14.23
2023-03-30T13:33:17.577Z,14.02
2023-03-30T13:35:57.121Z,14.37
2023-03-30T13:39:04.033Z,14.57
2023-03-30T13:42:00.645Z,14.36
2023-03-30T13:45:00.537Z,14.60
2023-03-30T13:47:50.630Z,14.69
2023-03-30T13:50:28.564Z,14.59
2023-03-30T13:53:00.666Z,14.53
2023-03-30T13:55:40.562Z,14.34
2023-03-30T13:58:33.014Z,14.33
2023-03-30T14:01:07.733Z,14.28
2023-03-30T14:03:57.514Z,13.95
2023-03-30T14:06:27.317Z,13.96
2023-03-30T14:09:09.528Z,14.02
2023-03-30T14:11:39.583Z,13.90
2023-03-30T14:14:07.348Z,13.91
2023-03-30T14:16:38.751Z,13.89
2023-03-30T14:19:27.973Z,13.57
2023-03-30T14:22:04.745Z,12.39
2023-03-30T14:24:35.617Z,12.03
2023-03-30T14:27:16.154Z,11.13
2023-03-30T14:29:48.232Z,10.58
2023-03-30T14:32:19.443Z,10.58
2023-03-30T14:34:49.386Z,10.68
2023-03-30T14:37:17.708Z,10.49
2023-03-30T14:39:57.350Z,10.51
2023-03-30T14:42:35.985Z,10.39
2023-03-30T14:45:03.191Z,10.52
2023-03-30T14:47:29.753Z,10.67
2023-03-30T14:50:01.278Z,10.75
2023-03-30T14:52:48.496Z,10.91
2023-03-30T14:55:26.099Z,11.12
2023-03-30T14:57:55.771Z,11.22
2023-03-30T15:00:24.718Z,11.21
2023-03-30T15:02:57.057Z,11.34
2023-03-30T15:05:30.157Z,11.44
2023-03-30T15:07:56.732Z,11.53
2023-03-30T15:10:43.298Z,11.53
2023-03-30T15:13:23.109Z,11.70
2023-03-30T15:15:51.219Z,11.85
2023-03-30T15:18:26.952Z,11.75
2023-03-30T15:20:56.372Z,11.86
2023-03-30T15:23:25.869Z,12.10
2023-03-30T15:26:03.230Z,12.28
2023-03-30T15:28:58.956Z,12.47
2023-03-30T15:31:28.279Z,12.62
2023-03-30T15:33:59.725Z,12.81
2023-03-30T15:36:38.137Z,12.87
2023-03-30T15:39:23.769Z,12.98
2023-03-30T15:42:04.365Z,13.10
2023-03-30T15:44:37.705Z,12.89
2023-03-30T15:47:13.452Z,12.79
2023-03-30T15:49:45.228Z,13.00
2023-03-30T15:52:23.179Z,12.94
2023-03-30T15:54:55.150Z,13.17
2023-03-30T15:57:28.366Z,13.33
2023-03-30T16:00:01.399Z,13.45
2023-03-30T16:02:46.069Z,13.54
2023-03-30T16:05:23.087Z,13.57
2023-03-30T16:07:50.221Z,13.72
2023-03-30T16:10:30.635Z,13.90
2023-03-30T16:13:00.104Z,13.96
2023-03-30T16:15:31.308Z,13.89
2023-03-30T16:17:58.133Z,13.82
2023-03-30T16:20:30.419Z,13.66
2023-03-30T16:22:57.337Z,13.53
2023-03-30T16:25:41.707Z,13.40
2023-03-30T16:28:17.019Z,13.27
2023-03-30T16:30:48.236Z,13.30
2023-03-30T16:33:14.805Z,13.34
2023-03-30T16:35:41.386Z,13.33
2023-03-30T16:38:14.202Z,13.33
2023-03-30T16:40:44.898Z,13.36
2023-03-30T16:43:11.520Z,13.38
2023-03-30T16:45:38.378Z,13.39
2023-03-30T16:48:05.373Z,13.39
2023-03-30T16:50:38.071Z,13.40
2023-03-30T16:53:06.376Z,13.41
2023-03-30T16:55:33.349Z,13.33
2023-03-30T16:57:59.850Z,13.31
2023-03-30T17:00:31.313Z,13.35
2023-03-30T17:02:57.959Z,13.37
2023-03-30T17:05:24.935Z,13.35
2023-03-30T17:07:55.346Z,13.27
2023-03-30T17:10:33.560Z,13.18
2023-03-30T17:13:00.760Z,13.18
2023-03-30T17:15:28.524Z,13.13
2023-03-30T17:17:56.120Z,12.99
2023-03-30T17:20:30.373Z,12.93
2023-03-30T17:22:56.892Z,12.91
2023-03-30T17:25:26.304Z,12.93
2023-03-30T17:27:56.000Z,12.92
2023-03-30T17:30:29.620Z,12.85
2023-03-30T17:32:57.162Z,12.89
2023-03-30T17:35:25.484Z,12.85
2023-03-30T17:37:53.616Z,12.76
2023-03-30T17:40:23.197Z,12.70
2023-03-30T17:42:50.399Z,12.70
2023-03-30T17:45:20.658Z,12.70
2023-03-30T17:47:47.823Z,12.70
2023-03-30T17:50:23.211Z,12.67
2023-03-30T17:52:50.881Z,12.64
2023-03-30T17:55:20.060Z,12.58
2023-03-30T17:57:46.715Z,12.57
2023-03-30T18:00:26.588Z,12.49
2023-03-30T18:02:54.526Z,12.49
2023-03-30T18:05:27.678Z,12.51
2023-03-30T18:07:55.136Z,12.48
2023-03-30T18:10:25.558Z,12.46
2023-03-30T18:12:54.058Z,12.51
2023-03-30T18:15:27.875Z,12.53
2023-03-30T18:17:56.799Z,12.55
2023-03-30T18:20:33.769Z,12.51
2023-03-30T18:23:00.688Z,12.54
2023-03-30T18:25:32.585Z,12.49
2023-03-30T18:28:00.828Z,12.52
2023-03-30T18:30:38.324Z,12.51
2023-03-30T18:33:06.584Z,12.47
2023-03-30T18:35:36.791Z,12.42
2023-03-30T18:38:04.833Z,12.37
2023-03-30T18:40:38.723Z,12.25
2023-03-30T18:43:06.605Z,12.24
2023-03-30T18:45:38.165Z,12.17
2023-03-30T18:48:08.314Z,12.19
2023-03-30T18:50:44.499Z,12.18
2023-03-30T18:53:18.372Z,12.05
2023-03-30T18:55:48.717Z,12.11
2023-03-30T18:58:25.354Z,12.06
2023-03-30T19:00:54.328Z,12.02
2023-03-30T19:03:22.729Z,12.08
2023-03-30T19:05:50.725Z,12.02
2023-03-30T19:08:23.882Z,11.99
2023-03-30T19:10:55.070Z,11.97
2023-03-30T19:13:22.898Z,11.92
2023-03-30T19:15:51.594Z,11.97
2023-03-30T19:18:19.144Z,11.91
2023-03-30T19:20:49.216Z,11.92
2023-03-30T19:23:17.324Z,11.91
2023-03-30T19:25:45.197Z,11.95
2023-03-30T19:28:14.526Z,11.88
2023-03-30T19:30:41.462Z,11.76
2023-03-30T19:33:16.190Z,11.67
2023-03-30T19:35:44.872Z,11.76
2023-03-30T19:38:12.321Z,11.74
2023-03-30T19:40:40.376Z,11.79
2023-03-30T19:43:07.646Z,11.77
2023-03-30T19:45:34.302Z,11.77
2023-03-30T19:48:01.068Z,11.73
2023-03-30T19:50:29.982Z,11.69
2023-03-30T19:52:57.378Z,11.65
2023-03-30T19:55:24.016Z,11.63
2023-03-30T19:57:50.877Z,11.60
2023-03-30T20:00:19.578Z,11.46
2023-03-30T20:02:53.018Z,11.34
2023-03-30T20:05:23.043Z,11.24
2023-03-30T20:07:51.143Z,11.26
2023-03-30T20:10:25.028Z,11.20
2023-03-30T20:12:53.118Z,11.14
2023-03-30T20:15:22.504Z,11.15
2023-03-30T20:17:49.094Z,11.17
2023-03-30T20:20:23.409Z,11.20
2023-03-30T20:22:53.278Z,11.20
2023-03-30T20:25:21.623Z,11.28
2023-03-30T20:27:48.343Z,11.25
2023-03-30T20:30:16.651Z,11.22
2023-03-30T20:32:45.225Z,11.22
2023-03-30T20:35:16.299Z,11.26
2023-03-30T20:37:42.820Z,11.32
2023-03-30T20:40:10.030Z,11.25
2023-03-30T20:42:39.948Z,11.23
2023-03-30T20:45:08.321Z,11.28
2023-03-30T20:47:34.976Z,11.32
2023-03-30T20:50:01.578Z,11.28
2023-03-30T20:52:29.269Z,11.32
2023-03-30T20:54:56.308Z,11.29
2023-03-30T20:57:24.305Z,11.29
2023-03-30T20:59:53.312Z,11.23
2023-03-30T21:02:20.431Z,11.21
2023-03-30T21:04:48.218Z,11.21
2023-03-30T21:07:16.946Z,11.08
2023-03-30T21:09:43.580Z,11.01
2023-03-30T21:12:10.573Z,11.04
2023-03-30T21:14:37.250Z,11.06
2023-03-30T21:17:04.428Z,11.10
2023-03-30T21:19:31.126Z,11.14
2023-03-30T21:21:57.818Z,11.16
2023-03-30T21:24:24.380Z,11.12
2023-03-30T21:26:50.976Z,11.14
2023-03-30T21:29:18.054Z,11.14
2023-03-30T21:31:44.722Z,11.15
2023-03-30T21:34:11.672Z,11.15
2023-03-30T21:36:38.209Z,11.20
2023-03-30T21:39:04.856Z,11.20
2023-03-30T21:41:31.438Z,11.19
2023-03-30T21:43:57.915Z,11.08
2023-03-30T21:46:29.066Z,11.02
2023-03-30T21:48:55.718Z,11.04
2023-03-30T21:51:28.851Z,10.97
2023-03-30T21:53:57.351Z,10.97
2023-03-30T21:56:29.025Z,10.90
2023-03-30T21:58:56.268Z,10.88
2023-03-30T22:01:24.173Z,10.87
2023-03-30T22:03:52.096Z,10.76
2023-03-30T22:06:19.266Z,10.71
2023-03-30T22:08:46.400Z,10.65
2023-03-30T22:11:23.370Z,10.63
2023-03-30T22:13:52.005Z,10.57
2023-03-30T22:16:24.438Z,10.39
2023-03-30T22:18:52.130Z,10.46
2023-03-30T22:21:24.532Z,10.52
2023-03-30T22:23:54.496Z,10.59
2023-03-30T22:26:22.162Z,10.62
2023-03-30T22:28:48.925Z,10.60
2023-03-30T22:31:16.629Z,10.64
2023-03-30T22:33:43.272Z,10.65
2023-03-30T22:36:23.094Z,10.63
2023-03-30T22:38:51.659Z,10.70
2023-03-30T22:41:23.653Z,10.73
2023-03-30T22:43:52.251Z,10.71
2023-03-30T22:46:18.890Z,10.63
2023-03-30T22:48:45.527Z,10.57
2023-03-30T22:51:14.791Z,10.62
2023-03-30T22:53:41.360Z,10.72
2023-03-30T22:56:08.214Z,10.78
2023-03-30T22:58:35.984Z,10.68
2023-03-30T23:01:06.942Z,10.67
2023-03-30T23:03:33.587Z,10.74
2023-03-30T23:06:01.532Z,10.62
2023-03-30T23:08:31.636Z,10.46
2023-03-30T23:11:04.445Z,10.47
2023-03-30T23:13:32.492Z,10.37
2023-03-30T23:15:59.545Z,10.38
2023-03-30T23:18:26.113Z,10.38
2023-03-30T23:20:53.912Z,10.33
2023-03-30T23:23:20.935Z,10.19
2023-03-30T23:25:51.897Z,10.09
2023-03-30T23:28:18.955Z,10.17
2023-03-30T23:30:45.893Z,10.19
2023-03-30T23:33:13.331Z,10.21
2023-03-30T23:35:41.782Z,10.20
2023-03-30T23:38:10.034Z,10.18
2023-03-30T23:40:36.727Z,10.24
2023-03-30T23:43:03.219Z,10.22
2023-03-30T23:45:29.756Z,10.20
2023-03-30T23:47:56.436Z,10.15
2023-03-30T23:50:22.946Z,10.18
2023-03-30T23:52:49.372Z,10.21
2023-03-30T23:55:18.329Z,10.25
2023-03-30T23:57:45.492Z,10.28
